Time;durP1;ratioP1;P1;durP2;ratioP2;P2;SDS_P1;SDS_P2;PMS_P1;PMS_P2;Temp;Humidity;BMP_temperature;BMP_pressure;BME280_temperature;BME280_humidity;BME280_pressure;Samples;Min_cycle;Max_cycle;Signal;HPM_P1;HPM_P2
2022/03/08 00:01:58;;;;;;;18.80;13.52;;;;;;;;;;4939437;28;93680;-74
2022/03/08 00:04:25;;;;;;;22.30;12.95;;;;;;;;;;4939801;28;92268;-75
2022/03/08 00:06:52;;;;;;;22.95;13.27;;;;;;;;;;4939645;28;93590;-74
2022/03/08 00:09:18;;;;;;;20.60;13.68;;;;;;;;;;4939386;28;93385;-74
2022/03/08 00:11:44;;;;;;;21.30;14.02;;;;;;;;;;4939870;28;93220;-75
2022/03/08 00:14:11;;;;;;;19.42;12.88;;;;;;;;;;4941475;28;96531;-75
2022/03/08 00:16:37;;;;;;;26.38;13.57;;;;;;;;;;4939968;28;92466;-75
2022/03/08 00:19:06;;;;;;;19.70;13.60;;;;;;;;;;4945267;28;92168;-75
2022/03/08 00:21:32;;;;;;;21.27;13.93;;;;;;;;;;4942982;28;93440;-76
2022/03/08 00:24:01;;;;;;;19.95;13.75;;;;;;;;;;4936693;28;94858;-75
2022/03/08 00:26:27;;;;;;;21.20;13.68;;;;;;;;;;4939659;28;95388;-76
2022/03/08 00:28:54;;;;;;;17.80;13.23;;;;;;;;;;4938710;28;92888;-77
2022/03/08 00:31:20;;;;;;;20.77;13.35;;;;;;;;;;4938919;28;92352;-75
2022/03/08 00:33:47;;;;;;;21.05;13.68;;;;;;;;;;4942297;28;93342;-76
2022/03/08 00:36:13;;;;;;;24.88;14.68;;;;;;;;;;4939321;28;92299;-76
2022/03/08 00:38:39;;;;;;;22.92;14.05;;;;;;;;;;4938163;28;95944;-76
2022/03/08 00:41:06;;;;;;;20.17;13.07;;;;;;;;;;4939879;28;92290;-75
2022/03/08 00:43:34;;;;;;;22.05;13.10;;;;;;;;;;4937815;28;92303;-76
2022/03/08 00:46:00;;;;;;;25.05;13.10;;;;;;;;;;4921435;28;95841;-76
2022/03/08 00:48:27;;;;;;;24.55;13.77;;;;;;;;;;4937653;28;94967;-75
2022/03/08 00:50:53;;;;;;;22.73;13.27;;;;;;;;;;4939245;28;92304;-76
2022/03/08 00:53:20;;;;;;;19.95;13.70;;;;;;;;;;4937692;28;94824;-77
2022/03/08 00:55:46;;;;;;;18.52;13.57;;;;;;;;;;4941962;28;93448;-76
2022/03/08 00:58:13;;;;;;;20.60;14.18;;;;;;;;;;4938775;28;93408;-75
2022/03/08 01:00:40;;;;;;;22.92;13.85;;;;;;;;;;4939019;28;93871;-75
2022/03/08 01:03:07;;;;;;;20.95;13.95;;;;;;;;;;4939209;28;92339;-75
2022/03/08 01:05:34;;;;;;;25.95;13.07;;;;;;;;;;4935555;28;95445;-75
2022/03/08 01:08:01;;;;;;;20.77;13.50;;;;;;;;;;4938994;28;93027;-76
2022/03/08 01:10:28;;;;;;;19.10;13.50;;;;;;;;;;4938978;28;92750;-76
2022/03/08 01:12:55;;;;;;;20.95;12.80;;;;;;;;;;4935380;28;94799;-76
2022/03/08 01:15:24;;;;;;;17.83;13.18;;;;;;;;;;4937917;28;92975;-77
2022/03/08 01:17:52;;;;;;;20.80;12.85;;;;;;;;;;4940626;28;92342;-76
2022/03/08 01:20:18;;;;;;;18.67;14.00;;;;;;;;;;4937306;28;94708;-76
2022/03/08 01:22:45;;;;;;;18.52;13.68;;;;;;;;;;4938603;28;92298;-75
2022/03/08 01:25:12;;;;;;;19.70;12.52;;;;;;;;;;4938788;28;92526;-75
2022/03/08 01:27:39;;;;;;;19.80;12.77;;;;;;;;;;4936815;28;95061;-75
2022/03/08 01:30:06;;;;;;;21.17;13.07;;;;;;;;;;4938314;28;91595;-76
2022/03/08 01:32:33;;;;;;;23.08;12.20;;;;;;;;;;4937137;28;95099;-75
2022/03/08 01:34:59;;;;;;;19.10;12.30;;;;;;;;;;4938305;28;92184;-76
2022/03/08 01:37:25;;;;;;;17.95;13.15;;;;;;;;;;4936118;28;94631;-77
2022/03/08 01:39:52;;;;;;;22.88;12.95;;;;;;;;;;4939911;28;97680;-75
2022/03/08 01:42:21;;;;;;;19.63;12.77;;;;;;;;;;4937040;28;93321;-75
2022/03/08 01:44:48;;;;;;;16.73;12.65;;;;;;;;;;4937352;28;96734;-74
2022/03/08 01:47:15;;;;;;;19.50;12.88;;;;;;;;;;4969443;28;95118;-75
2022/03/08 01:49:42;;;;;;;17.05;11.95;;;;;;;;;;4937074;28;93066;-75
2022/03/08 01:52:09;;;;;;;18.48;12.15;;;;;;;;;;4938385;28;92264;-75
2022/03/08 01:54:36;;;;;;;18.25;12.93;;;;;;;;;;4938185;28;92983;-75
2022/03/08 01:57:05;;;;;;;21.13;12.85;;;;;;;;;;4938176;28;92272;-75
2022/03/08 01:59:32;;;;;;;22.02;13.25;;;;;;;;;;4937246;28;93610;-75
2022/03/08 02:01:58;;;;;;;17.05;12.45;;;;;;;;;;4939261;28;95411;-75
2022/03/08 02:04:25;;;;;;;18.73;13.13;;;;;;;;;;4937074;28;95942;-75
2022/03/08 02:06:52;;;;;;;17.25;11.55;;;;;;;;;;4937938;28;93788;-76
2022/03/08 02:09:18;;;;;;;18.98;12.57;;;;;;;;;;4937307;28;92413;-76
2022/03/08 02:11:44;;;;;;;18.50;12.52;;;;;;;;;;4938084;28;93074;-76
2022/03/08 02:14:11;;;;;;;18.80;12.90;;;;;;;;;;4937517;28;93231;-76
2022/03/08 02:16:37;;;;;;;19.70;13.10;;;;;;;;;;4937915;28;92249;-76
2022/03/08 02:19:04;;;;;;;19.48;12.52;;;;;;;;;;4937365;28;97287;-76
2022/03/08 02:21:34;;;;;;;18.20;12.35;;;;;;;;;;4936477;28;93482;-77
2022/03/08 02:24:00;;;;;;;19.38;12.63;;;;;;;;;;4940355;28;92318;-76
2022/03/08 02:26:27;;;;;;;19.05;12.90;;;;;;;;;;4934995;28;95990;-76
2022/03/08 02:28:54;;;;;;;20.27;12.35;;;;;;;;;;4937802;28;92196;-75
2022/03/08 02:31:20;;;;;;;20.98;12.20;;;;;;;;;;4938230;28;92469;-76
2022/03/08 02:33:46;;;;;;;17.45;12.27;;;;;;;;;;4937945;28;93149;-75
2022/03/08 02:36:13;;;;;;;20.60;12.70;;;;;;;;;;4937915;28;92380;-75
2022/03/08 02:38:39;;;;;;;21.88;13.10;;;;;;;;;;4936751;28;93347;-77
2022/03/08 02:41:06;;;;;;;22.38;12.57;;;;;;;;;;4937435;28;93269;-77
2022/03/08 02:43:32;;;;;;;18.65;12.68;;;;;;;;;;4939823;28;91701;-76
2022/03/08 02:45:58;;;;;;;23.40;13.45;;;;;;;;;;4937052;28;95138;-78
2022/03/08 02:48:26;;;;;;;21.85;13.30;;;;;;;;;;4937365;28;92329;-76
2022/03/08 02:50:52;;;;;;;23.20;12.98;;;;;;;;;;4935555;28;94652;-76
2022/03/08 02:53:19;;;;;;;17.27;12.50;;;;;;;;;;4937116;28;93697;-75
2022/03/08 02:55:45;;;;;;;19.20;12.57;;;;;;;;;;4936432;28;92186;-76
2022/03/08 02:58:12;;;;;;;20.45;12.88;;;;;;;;;;4933742;28;93772;-75
2022/03/08 03:00:38;;;;;;;20.00;13.35;;;;;;;;;;4952562;28;93262;-75
2022/03/08 03:03:05;;;;;;;19.25;12.85;;;;;;;;;;4937358;28;92249;-76
2022/03/08 03:05:32;;;;;;;27.00;13.27;;;;;;;;;;4938731;28;95118;-76
2022/03/08 03:07:58;;;;;;;20.58;12.90;;;;;;;;;;4937889;28;91636;-76
2022/03/08 03:10:25;;;;;;;17.50;12.07;;;;;;;;;;4937197;28;92514;-75
2022/03/08 03:12:53;;;;;;;18.75;11.98;;;;;;;;;;4937312;28;92998;-77
2022/03/08 03:15:20;;;;;;;19.98;12.82;;;;;;;;;;4934556;28;94703;-76
2022/03/08 03:17:46;;;;;;;23.88;13.45;;;;;;;;;;4936147;28;95204;-77
2022/03/08 03:20:14;;;;;;;21.35;13.38;;;;;;;;;;4936638;28;93966;-75
2022/03/08 03:22:41;;;;;;;21.95;12.88;;;;;;;;;;4936947;28;92234;-78
2022/03/08 03:25:08;;;;;;;22.58;13.15;;;;;;;;;;4936377;28;92290;-77
2022/03/08 03:27:34;;;;;;;24.77;13.60;;;;;;;;;;4939359;28;92909;-77
2022/03/08 03:30:01;;;;;;;23.17;13.18;;;;;;;;;;4936834;28;93372;-76
2022/03/08 03:32:28;;;;;;;21.17;13.27;;;;;;;;;;4936508;28;93072;-78
2022/03/08 03:34:54;;;;;;;20.30;12.52;;;;;;;;;;4937169;28;92174;-77
2022/03/08 03:37:20;;;;;;;19.95;12.07;;;;;;;;;;4936340;28;92284;-78
2022/03/08 03:39:47;;;;;;;20.27;12.45;;;;;;;;;;4933828;28;96440;-76
2022/03/08 03:42:13;;;;;;;18.83;12.20;;;;;;;;;;4936440;28;92471;-77
2022/03/08 03:44:40;;;;;;;20.65;12.77;;;;;;;;;;4936671;28;93579;-76
2022/03/08 03:47:06;;;;;;;23.05;12.82;;;;;;;;;;4936261;28;93824;-76
2022/03/08 03:49:33;;;;;;;18.45;12.25;;;;;;;;;;4938933;28;93723;-76
2022/03/08 03:51:59;;;;;;;20.05;13.15;;;;;;;;;;4936592;28;93586;-77
2022/03/08 03:54:26;;;;;;;19.33;12.70;;;;;;;;;;4936018;28;92331;-77
2022/03/08 03:56:52;;;;;;;17.88;12.32;;;;;;;;;;4936727;28;93327;-77
2022/03/08 03:59:18;;;;;;;17.88;11.90;;;;;;;;;;4936746;28;93953;-77
2022/03/08 04:01:45;;;;;;;17.60;12.07;;;;;;;;;;4938801;28;92499;-76
2022/03/08 04:04:11;;;;;;;17.45;11.40;;;;;;;;;;4921267;28;95307;-77
2022/03/08 04:06:38;;;;;;;18.20;12.05;;;;;;;;;;4938910;28;93173;-77
2022/03/08 04:09:05;;;;;;;18.20;11.68;;;;;;;;;;4939830;28;92330;-76
2022/03/08 04:11:31;;;;;;;14.95;10.43;;;;;;;;;;4942734;28;92433;-78
2022/03/08 04:13:58;;;;;;;15.77;10.68;;;;;;;;;;4939441;28;92399;-76
2022/03/08 04:16:25;;;;;;;15.23;10.60;;;;;;;;;;4939101;28;94024;-77
2022/03/08 04:18:51;;;;;;;14.73;10.43;;;;;;;;;;4939698;28;93618;-78
2022/03/08 04:21:18;;;;;;;18.65;11.43;;;;;;;;;;4938896;28;92740;-78
2022/03/08 04:23:44;;;;;;;16.67;11.43;;;;;;;;;;4937973;28;92978;-78
2022/03/08 04:26:10;;;;;;;16.63;11.40;;;;;;;;;;4939182;28;95495;-77
2022/03/08 04:28:37;;;;;;;19.52;11.80;;;;;;;;;;4937728;28;94773;-78
2022/03/08 04:31:03;;;;;;;18.75;11.95;;;;;;;;;;4942414;28;95814;-77
2022/03/08 04:33:29;;;;;;;16.73;11.52;;;;;;;;;;4954840;28;92394;-77
2022/03/08 04:35:56;;;;;;;19.58;11.45;;;;;;;;;;4938189;28;94893;-77
2022/03/08 04:38:23;;;;;;;18.73;11.95;;;;;;;;;;4938230;28;96936;-77
2022/03/08 04:40:49;;;;;;;19.13;11.98;;;;;;;;;;4939490;28;92362;-77
2022/03/08 04:43:16;;;;;;;19.77;11.80;;;;;;;;;;4943218;28;93840;-77
2022/03/08 04:45:42;;;;;;;18.25;12.02;;;;;;;;;;4940312;28;92767;-77
2022/03/08 04:48:09;;;;;;;18.05;12.32;;;;;;;;;;4922051;28;93582;-78
2022/03/08 04:50:35;;;;;;;20.60;12.60;;;;;;;;;;4939208;28;93187;-77
2022/03/08 04:53:03;;;;;;;18.67;11.73;;;;;;;;;;4940025;28;96029;-77
2022/03/08 04:55:29;;;;;;;21.15;12.90;;;;;;;;;;4939117;28;95689;-78
2022/03/08 04:58:01;;;;;;;19.30;11.88;;;;;;;;;;4937624;28;94930;-77
2022/03/08 05:00:28;;;;;;;25.90;12.23;;;;;;;;;;4938232;28;92417;-76
2022/03/08 05:02:54;;;;;;;24.60;11.98;;;;;;;;;;4939048;28;93053;-76
2022/03/08 05:05:21;;;;;;;22.63;11.82;;;;;;;;;;4938562;28;93914;-76
2022/03/08 05:07:47;;;;;;;19.88;12.27;;;;;;;;;;4938853;28;92499;-77
2022/03/08 05:10:14;;;;;;;19.35;12.52;;;;;;;;;;4970537;28;93534;-77
2022/03/08 05:12:40;;;;;;;20.05;11.85;;;;;;;;;;4938926;28;93485;-76
2022/03/08 05:15:07;;;;;;;18.65;10.45;;;;;;;;;;4941760;28;92207;-76
2022/03/08 05:17:34;;;;;;;13.55;10.30;;;;;;;;;;4937091;28;96033;-76
2022/03/08 05:20:02;;;;;;;16.38;10.27;;;;;;;;;;4938479;28;92399;-76
2022/03/08 05:22:28;;;;;;;15.20;9.15;;;;;;;;;;4938700;28;92861;-76
2022/03/08 05:24:54;;;;;;;11.90;8.75;;;;;;;;;;4939014;28;94327;-76
2022/03/08 05:27:21;;;;;;;12.32;8.85;;;;;;;;;;4939306;28;92315;-77
2022/03/08 05:29:47;;;;;;;11.23;8.02;;;;;;;;;;4938272;28;96200;-78
2022/03/08 05:32:13;;;;;;;13.20;8.80;;;;;;;;;;4939269;28;93208;-77
2022/03/08 05:34:41;;;;;;;14.68;8.88;;;;;;;;;;4939412;28;91435;-77
2022/03/08 05:37:07;;;;;;;11.43;8.38;;;;;;;;;;4924859;28;94058;-77
2022/03/08 05:39:34;;;;;;;11.45;7.75;;;;;;;;;;4939485;28;92438;-76
2022/03/08 05:42:00;;;;;;;10.23;7.82;;;;;;;;;;4937618;28;94872;-76
2022/03/08 05:44:26;;;;;;;11.02;8.23;;;;;;;;;;4938853;28;94172;-76
2022/03/08 05:46:53;;;;;;;11.88;8.80;;;;;;;;;;4938822;28;92325;-76
2022/03/08 05:49:19;;;;;;;22.88;8.50;;;;;;;;;;4938636;28;93254;-77
2022/03/08 05:51:46;;;;;;;12.20;7.82;;;;;;;;;;4938317;28;92984;-77
2022/03/08 05:54:12;;;;;;;10.88;8.10;;;;;;;;;;4938944;28;92216;-78
2022/03/08 05:56:39;;;;;;;12.35;8.23;;;;;;;;;;4937541;28;95175;-80
2022/03/08 05:59:05;;;;;;;14.15;8.10;;;;;;;;;;4942193;28;92383;-79
2022/03/08 06:01:31;;;;;;;12.55;8.18;;;;;;;;;;4938815;28;92371;-78
2022/03/08 06:03:58;;;;;;;10.88;8.05;;;;;;;;;;4935949;28;93586;-78
2022/03/08 06:06:24;;;;;;;13.27;9.07;;;;;;;;;;4937266;28;94614;-77
2022/03/08 06:08:51;;;;;;;12.50;8.00;;;;;;;;;;4938535;28;93991;-77
2022/03/08 06:11:18;;;;;;;11.73;8.80;;;;;;;;;;4937419;28;93268;-78
2022/03/08 06:13:44;;;;;;;11.02;8.18;;;;;;;;;;4952319;28;92485;-77
2022/03/08 06:16:10;;;;;;;10.48;8.07;;;;;;;;;;4932500;28;94531;-77
2022/03/08 06:18:37;;;;;;;13.07;8.95;;;;;;;;;;4969728;28;94081;-78
2022/03/08 06:21:04;;;;;;;10.52;8.20;;;;;;;;;;4941524;28;92476;-79
2022/03/08 06:23:30;;;;;;;11.70;8.77;;;;;;;;;;4938547;28;91518;-79
2022/03/08 06:25:57;;;;;;;12.13;8.43;;;;;;;;;;4919426;28;92363;-77
2022/03/08 06:28:24;;;;;;;11.65;8.98;;;;;;;;;;4919044;28;93816;-77
2022/03/08 06:30:57;;;;;;;13.82;8.82;;;;;;;;;;4917224;28;95393;-79
2022/03/08 06:33:23;;;;;;;12.38;8.85;;;;;;;;;;4934188;28;92456;-78
2022/03/08 06:35:50;;;;;;;11.85;8.57;;;;;;;;;;4919584;28;93333;-79
2022/03/08 06:38:16;;;;;;;13.60;8.70;;;;;;;;;;4933799;28;95925;-77
2022/03/08 06:40:43;;;;;;;10.82;9.05;;;;;;;;;;4937110;28;92418;-78
2022/03/08 06:43:09;;;;;;;11.48;8.35;;;;;;;;;;4918883;28;93179;-78
2022/03/08 06:45:35;;;;;;;11.13;8.20;;;;;;;;;;4918485;28;92359;-77
2022/03/08 06:48:02;;;;;;;10.82;8.90;;;;;;;;;;4919340;28;93098;-79
2022/03/08 06:50:28;;;;;;;9.95;8.65;;;;;;;;;;4930645;28;95177;-78
2022/03/08 06:52:57;;;;;;;14.18;8.80;;;;;;;;;;4933592;28;92325;-79
2022/03/08 06:55:26;;;;;;;14.15;8.77;;;;;;;;;;4918810;28;95052;-77
2022/03/08 06:57:54;;;;;;;18.55;9.43;;;;;;;;;;4919701;28;92316;-78
2022/03/08 07:00:21;;;;;;;12.07;8.95;;;;;;;;;;4936641;28;92596;-82
2022/03/08 07:03:01;;;;;;;13.38;9.55;;;;;;;;;;4933609;28;92733;-78
2022/03/08 07:05:28;;;;;;;11.95;9.23;;;;;;;;;;4934578;28;92369;-77
2022/03/08 07:07:57;;;;;;;13.18;9.77;;;;;;;;;;4933704;28;95941;-77
2022/03/08 07:10:23;;;;;;;17.23;9.18;;;;;;;;;;4933406;28;95025;-77
2022/03/08 07:12:50;;;;;;;13.60;8.63;;;;;;;;;;4933397;28;91626;-78
2022/03/08 07:15:16;;;;;;;12.00;9.10;;;;;;;;;;4921037;28;92600;-80
2022/03/08 07:17:55;;;;;;;12.30;9.15;;;;;;;;;;4919949;28;93129;-81
2022/03/08 07:20:26;;;;;;;12.93;8.98;;;;;;;;;;4917026;28;94795;-77
2022/03/08 07:22:54;;;;;;;9.75;8.38;;;;;;;;;;4917324;28;98559;-78
2022/03/08 07:25:21;;;;;;;17.35;9.65;;;;;;;;;;4921071;28;93338;-79
2022/03/08 07:27:48;;;;;;;12.48;9.10;;;;;;;;;;4917149;28;93880;-76
2022/03/08 07:30:15;;;;;;;11.60;8.75;;;;;;;;;;4918094;28;93516;-78
2022/03/08 07:32:41;;;;;;;12.65;8.52;;;;;;;;;;4917095;28;92393;-76
2022/03/08 07:35:08;;;;;;;14.75;9.07;;;;;;;;;;4935128;28;95831;-75
2022/03/08 07:37:35;;;;;;;15.05;9.15;;;;;;;;;;4936948;28;93814;-75
2022/03/08 07:40:05;;;;;;;13.52;9.27;;;;;;;;;;4921675;28;92291;-77
2022/03/08 07:42:32;;;;;;;14.13;9.20;;;;;;;;;;4921920;28;93463;-74
2022/03/08 07:44:58;;;;;;;11.02;9.30;;;;;;;;;;4918397;28;98501;-74
2022/03/08 07:47:25;;;;;;;14.60;9.43;;;;;;;;;;4924127;28;92549;-74
2022/03/08 07:49:51;;;;;;;10.45;9.23;;;;;;;;;;4921094;28;93929;-75
2022/03/08 07:52:18;;;;;;;10.55;9.02;;;;;;;;;;4920703;28;92305;-75
2022/03/08 07:54:45;;;;;;;11.23;9.18;;;;;;;;;;4936156;28;94354;-75
2022/03/08 07:57:11;;;;;;;12.68;9.50;;;;;;;;;;4921212;28;93706;-75
2022/03/08 07:59:37;;;;;;;11.88;8.95;;;;;;;;;;4921444;28;92295;-75
2022/03/08 08:02:04;;;;;;;11.23;9.60;;;;;;;;;;4921588;28;93121;-74
2022/03/08 08:04:30;;;;;;;13.20;9.23;;;;;;;;;;4921016;28;93873;-73
2022/03/08 08:06:57;;;;;;;12.90;9.75;;;;;;;;;;4932980;28;92365;-75
2022/03/08 08:09:23;;;;;;;13.23;8.95;;;;;;;;;;4941884;28;94654;-74
2022/03/08 08:11:50;;;;;;;11.52;8.55;;;;;;;;;;4940233;28;92287;-73
2022/03/08 08:14:16;;;;;;;11.18;9.25;;;;;;;;;;4940484;28;93319;-74
2022/03/08 08:16:43;;;;;;;10.38;8.60;;;;;;;;;;4940231;28;93578;-73
2022/03/08 08:19:09;;;;;;;11.45;9.10;;;;;;;;;;4940328;28;92418;-75
2022/03/08 08:21:36;;;;;;;10.15;8.65;;;;;;;;;;4938544;28;96646;-72
2022/03/08 08:24:02;;;;;;;10.68;8.20;;;;;;;;;;4939912;28;94340;-74
2022/03/08 08:26:29;;;;;;;12.75;8.80;;;;;;;;;;4940519;28;93122;-75
2022/03/08 08:28:55;;;;;;;10.88;8.45;;;;;;;;;;4940142;28;92903;-74
2022/03/08 08:31:23;;;;;;;10.23;8.50;;;;;;;;;;4942791;28;93944;-73
2022/03/08 08:33:50;;;;;;;10.20;8.45;;;;;;;;;;4938516;28;94742;-75
2022/03/08 08:36:17;;;;;;;12.90;8.80;;;;;;;;;;4939843;28;93209;-74
2022/03/08 08:38:44;;;;;;;13.00;8.63;;;;;;;;;;4938775;28;92345;-74
2022/03/08 08:41:10;;;;;;;9.80;8.43;;;;;;;;;;4939077;28;92797;-75
2022/03/08 08:43:37;;;;;;;10.40;8.88;;;;;;;;;;4939802;28;93547;-73
2022/03/08 08:46:04;;;;;;;10.88;8.80;;;;;;;;;;4939076;28;92326;-73
2022/03/08 08:48:35;;;;;;;13.52;8.23;;;;;;;;;;4939813;28;92795;-73
2022/03/08 08:51:02;;;;;;;9.90;8.27;;;;;;;;;;4942822;28;94991;-74
2022/03/08 08:53:29;;;;;;;10.93;8.38;;;;;;;;;;4971211;28;95555;-74
2022/03/08 08:55:55;;;;;;;9.77;8.50;;;;;;;;;;4939733;28;93166;-75
2022/03/08 08:58:22;;;;;;;9.00;8.10;;;;;;;;;;4938250;28;94796;-75
2022/03/08 09:00:48;;;;;;;11.05;8.25;;;;;;;;;;4939265;28;95318;-76
2022/03/08 09:03:17;;;;;;;11.43;9.23;;;;;;;;;;4937898;28;95002;-75
2022/03/08 09:05:48;;;;;;;15.05;8.25;;;;;;;;;;4939325;28;92263;-72
2022/03/08 09:08:15;;;;;;;11.00;8.60;;;;;;;;;;4939287;28;92965;-72
2022/03/08 09:10:41;;;;;;;13.98;8.63;;;;;;;;;;4939456;28;93236;-72
2022/03/08 09:13:08;;;;;;;10.98;8.38;;;;;;;;;;4942509;28;92340;-72
2022/03/08 09:15:35;;;;;;;8.95;7.90;;;;;;;;;;4938534;28;92306;-69
2022/03/08 09:18:05;;;;;;;11.13;9.13;;;;;;;;;;4941215;28;92459;-71
2022/03/08 09:20:32;;;;;;;11.07;8.30;;;;;;;;;;4935734;28;95402;-73
2022/03/08 09:22:58;;;;;;;11.18;8.93;;;;;;;;;;4936281;28;96961;-73
2022/03/08 09:25:25;;;;;;;12.93;9.13;;;;;;;;;;4945791;28;93079;-76
2022/03/08 09:27:51;;;;;;;16.85;9.57;;;;;;;;;;4943503;28;93245;-76
2022/03/08 09:30:18;;;;;;;20.23;10.90;;;;;;;;;;4942291;28;92359;-77
2022/03/08 09:32:44;;;;;;;11.27;9.20;;;;;;;;;;4940867;28;92344;-77
2022/03/08 09:35:11;;;;;;;11.68;8.70;;;;;;;;;;4944548;28;92437;-76
2022/03/08 09:37:37;;;;;;;13.13;8.85;;;;;;;;;;4935384;28;92480;-76
2022/03/08 09:40:04;;;;;;;12.63;8.65;;;;;;;;;;4938228;28;94459;-71
2022/03/08 09:42:30;;;;;;;10.60;8.02;;;;;;;;;;4938484;28;93510;-71
2022/03/08 09:44:57;;;;;;;11.85;8.10;;;;;;;;;;4940092;28;92348;-72
2022/03/08 09:47:24;;;;;;;14.43;8.80;;;;;;;;;;4956139;28;95255;-73
2022/03/08 09:49:50;;;;;;;12.85;8.80;;;;;;;;;;4940086;28;93506;-74
2022/03/08 09:52:19;;;;;;;10.65;8.23;;;;;;;;;;4937076;28;92372;-75
2022/03/08 09:54:46;;;;;;;14.32;9.05;;;;;;;;;;4940037;28;93532;-75
2022/03/08 09:57:26;;;;;;;10.77;8.35;;;;;;;;;;4939434;28;93410;-76
2022/03/08 09:59:53;;;;;;;12.75;7.88;;;;;;;;;;4937454;28;94220;-75
2022/03/08 10:02:22;;;;;;;11.43;8.05;;;;;;;;;;4937956;28;93701;-75
2022/03/08 10:05:02;;;;;;;13.02;8.35;;;;;;;;;;4938352;28;92353;-74
2022/03/08 10:07:29;;;;;;;10.02;8.48;;;;;;;;;;4935613;28;93757;-76
2022/03/08 10:09:57;;;;;;;8.93;7.03;;;;;;;;;;4937351;28;94776;-74
2022/03/08 10:12:24;;;;;;;9.48;8.40;;;;;;;;;;4936529;28;94556;-74
2022/03/08 10:14:51;;;;;;;11.63;8.18;;;;;;;;;;4935898;28;96130;-75
2022/03/08 10:17:36;;;;;;;8.90;8.02;;;;;;;;;;4937668;28;93229;-74
2022/03/08 10:20:04;;;;;;;11.10;7.78;;;;;;;;;;4938612;28;92362;-75
2022/03/08 10:22:32;;;;;;;9.20;7.72;;;;;;;;;;4935714;28;95551;-75
2022/03/08 10:25:14;;;;;;;9.63;7.80;;;;;;;;;;4940639;28;93166;-74
2022/03/08 10:27:43;;;;;;;9.10;7.25;;;;;;;;;;4937714;28;92902;-74
2022/03/08 10:30:12;;;;;;;12.55;7.18;;;;;;;;;;4937980;28;92993;-75
2022/03/08 10:32:59;;;;;;;7.43;6.72;;;;;;;;;;4936993;28;92965;-75
2022/03/08 10:35:26;;;;;;;12.77;7.32;;;;;;;;;;4937492;28;93427;-74
2022/03/08 10:37:57;;;;;;;11.68;7.63;;;;;;;;;;4935855;28;96009;-74
2022/03/08 10:40:32;;;;;;;8.23;6.80;;;;;;;;;;4937466;28;92487;-74
2022/03/08 10:43:00;;;;;;;8.55;7.70;;;;;;;;;;4936716;28;93144;-73
2022/03/08 10:45:27;;;;;;;7.65;6.85;;;;;;;;;;4940817;28;92799;-73
2022/03/08 10:47:54;;;;;;;10.10;7.45;;;;;;;;;;4937442;28;93199;-72
2022/03/08 10:50:23;;;;;;;7.95;7.25;;;;;;;;;;4937051;28;93660;-73
2022/03/08 10:52:51;;;;;;;8.00;7.20;;;;;;;;;;4937278;28;92325;-74
2022/03/08 10:55:19;;;;;;;13.25;6.88;;;;;;;;;;4937861;28;93450;-73
2022/03/08 10:57:50;;;;;;;9.65;7.38;;;;;;;;;;4937002;28;93369;-73
2022/03/08 11:00:18;;;;;;;9.37;7.67;;;;;;;;;;4937156;28;93367;-72
2022/03/08 11:02:49;;;;;;;8.07;7.28;;;;;;;;;;4938383;28;94711;-73
2022/03/08 11:05:16;;;;;;;10.32;7.28;;;;;;;;;;4937623;28;92450;-73
2022/03/08 11:07:43;;;;;;;9.73;7.53;;;;;;;;;;4937231;28;92510;-72
2022/03/08 11:10:10;;;;;;;8.23;7.43;;;;;;;;;;4940886;28;93708;-73
2022/03/08 11:12:37;;;;;;;8.10;6.88;;;;;;;;;;4939775;28;92453;-74
2022/03/08 11:15:07;;;;;;;10.63;6.95;;;;;;;;;;4939391;28;93788;-74
2022/03/08 11:17:35;;;;;;;7.70;6.97;;;;;;;;;;4940322;28;93557;-76
2022/03/08 11:20:05;;;;;;;7.35;6.65;;;;;;;;;;4940788;28;91617;-73
2022/03/08 11:22:32;;;;;;;6.80;6.13;;;;;;;;;;4940079;28;93468;-72
2022/03/08 11:24:59;;;;;;;10.98;6.70;;;;;;;;;;4944447;28;92533;-73
2022/03/08 11:27:26;;;;;;;8.68;6.97;;;;;;;;;;4938584;28;95214;-73
2022/03/08 11:29:52;;;;;;;9.60;7.10;;;;;;;;;;4940426;28;93561;-73
2022/03/08 11:32:24;;;;;;;14.38;6.20;;;;;;;;;;4940021;28;94547;-74
2022/03/08 11:34:53;;;;;;;9.70;6.90;;;;;;;;;;4941971;28;93849;-73
2022/03/08 11:37:23;;;;;;;11.30;6.47;;;;;;;;;;4943951;28;93855;-74
2022/03/08 11:40:10;;;;;;;7.47;5.97;;;;;;;;;;4939891;28;92292;-73
2022/03/08 11:42:41;;;;;;;10.18;6.10;;;;;;;;;;4939462;28;93874;-73
2022/03/08 11:45:12;;;;;;;10.48;6.28;;;;;;;;;;4941110;28;94505;-74
2022/03/08 11:47:40;;;;;;;8.07;6.30;;;;;;;;;;4942206;28;92641;-75
2022/03/08 11:50:17;;;;;;;7.35;6.00;;;;;;;;;;4939671;28;93772;-75
2022/03/08 11:52:50;;;;;;;7.25;6.18;;;;;;;;;;4939128;28;94651;-74
2022/03/08 11:55:23;;;;;;;13.00;6.20;;;;;;;;;;4925348;28;96669;-74
2022/03/08 11:57:49;;;;;;;6.32;5.47;;;;;;;;;;4939085;28;93051;-75
2022/03/08 12:00:36;;;;;;;7.25;6.47;;;;;;;;;;4940188;28;92408;-75
2022/03/08 12:03:04;;;;;;;7.15;5.57;;;;;;;;;;4939212;28;93793;-75
2022/03/08 12:05:48;;;;;;;12.32;6.13;;;;;;;;;;4942384;28;92971;-76
2022/03/08 12:08:26;;;;;;;6.57;5.97;;;;;;;;;;4942277;28;92295;-76
2022/03/08 12:11:05;;;;;;;7.90;6.13;;;;;;;;;;4939147;28;93290;-77
2022/03/08 12:13:47;;;;;;;6.80;6.10;;;;;;;;;;4940859;28;92453;-75
2022/03/08 12:16:23;;;;;;;6.35;5.75;;;;;;;;;;4939656;28;93379;-75
2022/03/08 12:18:51;;;;;;;9.88;5.97;;;;;;;;;;4937764;28;95805;-75
2022/03/08 12:21:17;;;;;;;12.27;6.30;;;;;;;;;;4938372;28;94517;-77
2022/03/08 12:23:47;;;;;;;6.80;6.00;;;;;;;;;;4939289;28;94293;-75
2022/03/08 12:26:28;;;;;;;6.93;6.07;;;;;;;;;;4939326;28;94539;-75
2022/03/08 12:29:15;;;;;;;7.45;6.05;;;;;;;;;;4936911;28;92330;-71
2022/03/08 12:32:14;;;;;;;12.32;5.95;;;;;;;;;;4939609;28;93486;-78
2022/03/08 12:34:43;;;;;;;8.18;6.20;;;;;;;;;;4940125;28;92985;-75
2022/03/08 12:37:31;;;;;;;8.27;5.85;;;;;;;;;;4940036;28;92547;-78
2022/03/08 12:39:58;;;;;;;7.72;6.72;;;;;;;;;;4938042;28;96157;-74
2022/03/08 12:42:26;;;;;;;7.43;6.50;;;;;;;;;;4939409;28;93085;-76
2022/03/08 12:45:17;;;;;;;7.78;6.90;;;;;;;;;;4938061;28;94795;-75
2022/03/08 12:47:46;;;;;;;8.88;6.88;;;;;;;;;;4937714;28;96327;-74
2022/03/08 12:50:12;;;;;;;8.07;6.85;;;;;;;;;;4939294;28;92221;-74
2022/03/08 12:52:40;;;;;;;8.10;6.25;;;;;;;;;;4939329;28;93208;-74
2022/03/08 12:55:09;;;;;;;12.90;7.28;;;;;;;;;;4937831;28;93271;-74
2022/03/08 12:57:45;;;;;;;8.55;7.50;;;;;;;;;;4940212;28;92400;-74
2022/03/08 13:00:24;;;;;;;10.40;6.88;;;;;;;;;;4938852;28;93605;-74
2022/03/08 13:02:52;;;;;;;7.32;6.38;;;;;;;;;;4939196;28;91706;-74
2022/03/08 13:05:32;;;;;;;13.85;6.63;;;;;;;;;;4940141;28;92518;-75
2022/03/08 13:07:59;;;;;;;7.22;6.55;;;;;;;;;;4938928;28;93874;-75
2022/03/08 13:10:25;;;;;;;10.20;7.15;;;;;;;;;;4937338;28;95286;-74
2022/03/08 13:12:57;;;;;;;8.05;6.90;;;;;;;;;;4938613;28;97077;-74
2022/03/08 13:15:24;;;;;;;7.55;6.72;;;;;;;;;;4940150;28;94046;-75
2022/03/08 13:17:53;;;;;;;12.98;6.65;;;;;;;;;;4941560;28;92190;-74
2022/03/08 13:20:22;;;;;;;11.40;7.10;;;;;;;;;;4938992;28;94015;-74
2022/03/08 13:22:48;;;;;;;8.10;7.30;;;;;;;;;;4935521;28;92301;-75
2022/03/08 13:25:15;;;;;;;22.83;6.80;;;;;;;;;;4939700;28;93462;-73
2022/03/08 13:27:57;;;;;;;13.13;7.35;;;;;;;;;;4934050;28;92798;-74
2022/03/08 13:30:23;;;;;;;;;;;;;;;;;;4936006;28;92455;-74
2022/03/08 13:33:09;;;;;;;9.40;6.53;;;;;;;;;;4936707;28;121568;-74
2022/03/08 13:35:37;;;;;;;11.90;7.72;;;;;;;;;;4934719;28;95861;-76
2022/03/08 13:38:04;;;;;;;12.30;7.50;;;;;;;;;;4938017;28;92311;-73
2022/03/08 13:40:32;;;;;;;10.27;7.70;;;;;;;;;;4940606;28;93399;-74
2022/03/08 13:43:05;;;;;;;15.27;7.22;;;;;;;;;;4936367;28;92412;-75
2022/03/08 13:45:55;;;;;;;9.07;6.68;;;;;;;;;;4935327;28;93876;-75
2022/03/08 13:48:26;;;;;;;12.00;6.50;;;;;;;;;;4937662;28;93970;-74
2022/03/08 13:51:02;;;;;;;13.90;7.25;;;;;;;;;;4935136;28;92295;-75
2022/03/08 13:53:30;;;;;;;14.02;7.20;;;;;;;;;;4919923;28;95985;-73
2022/03/08 13:55:57;;;;;;;15.77;7.60;;;;;;;;;;4938615;28;93616;-74
2022/03/08 13:58:24;;;;;;;9.68;7.55;;;;;;;;;;4938864;28;92181;-74
2022/03/08 14:00:51;;;;;;;8.63;6.93;;;;;;;;;;4936888;28;94703;-74
2022/03/08 14:03:19;;;;;;;15.60;6.93;;;;;;;;;;4941673;28;94123;-74
2022/03/08 14:05:58;;;;;;;10.10;6.65;;;;;;;;;;4938712;28;92896;-75
2022/03/08 14:08:32;;;;;;;14.90;7.05;;;;;;;;;;4938615;28;93269;-75
2022/03/08 14:11:04;;;;;;;11.80;6.75;;;;;;;;;;4938733;28;92334;-74
2022/03/08 14:13:32;;;;;;;10.95;7.32;;;;;;;;;;4905771;28;95849;-74
2022/03/08 14:16:04;;;;;;;9.73;7.25;;;;;;;;;;4937660;28;92959;-74
2022/03/08 14:18:31;;;;;;;12.20;7.30;;;;;;;;;;4939078;28;91655;-74
2022/03/08 14:20:57;;;;;;;9.68;7.78;;;;;;;;;;4938475;28;93895;-74
2022/03/08 14:23:25;;;;;;;12.45;7.50;;;;;;;;;;4938019;28;96031;-74
2022/03/08 14:26:02;;;;;;;8.00;6.47;;;;;;;;;;4940170;28;94659;-74
2022/03/08 14:28:45;;;;;;;7.18;6.47;;;;;;;;;;4938554;28;93751;-74
2022/03/08 14:31:22;;;;;;;14.88;7.07;;;;;;;;;;4939459;28;92251;-74
2022/03/08 14:34:03;;;;;;;9.75;6.57;;;;;;;;;;4942274;28;94346;-76
2022/03/08 14:36:31;;;;;;;7.70;6.90;;;;;;;;;;4939198;28;93634;-75